Time;durP1;ratioP1;P1;durP2;ratioP2;P2;SDS_P1;SDS_P2;PMS_P1;PMS_P2;Temp;Humidity;BMP_temperature;BMP_pressure;BME280_temperature;BME280_humidity;BME280_pressure;Samples;Min_cycle;Max_cycle;Signal;HPM_P1;HPM_P2
2022/09/13 00:00:40;;;;;;;;;17.75;13.50;;;;;20.53;64.42;101013.13;5011127;28;8827;-65
2022/09/13 00:03:08;;;;;;;;;13.50;12.25;;;;;20.51;64.75;101007.09;5010744;28;8858;-65
2022/09/13 00:05:36;;;;;;;;;14.75;14.00;;;;;20.49;64.91;100999.13;5010812;28;9535;-66
2022/09/13 00:08:04;;;;;;;;;14.25;14.00;;;;;20.47;64.96;100997.72;5010810;28;8851;-65
2022/09/13 00:10:33;;;;;;;;;15.25;15.25;;;;;20.44;65.42;101004.53;5010557;28;8837;-66
2022/09/13 00:13:00;;;;;;;;;13.00;13.00;;;;;20.42;65.72;101014.09;5010306;28;8854;-65
2022/09/13 00:15:27;;;;;;;;;14.75;14.75;;;;;20.40;65.83;101008.84;5010671;28;8831;-66
2022/09/13 00:17:53;;;;;;;;;16.75;14.25;;;;;20.38;66.22;101004.75;5008346;28;8835;-67
2022/09/13 00:20:20;;;;;;;;;16.00;16.00;;;;;20.36;66.34;100993.22;5010294;28;8831;-67
2022/09/13 00:22:46;;;;;;;;;16.50;15.00;;;;;20.33;66.38;101000.00;5010252;28;8882;-66
2022/09/13 00:25:13;;;;;;;;;16.50;14.50;;;;;20.32;66.61;100989.34;4990805;28;8849;-67
2022/09/13 00:27:39;;;;;;;;;15.75;15.25;;;;;20.29;66.74;100998.03;5006587;28;8831;-67
2022/09/13 00:30:07;;;;;;;;;11.75;11.00;;;;;20.28;66.75;100999.13;5010295;28;8826;-66
2022/09/13 00:32:34;;;;;;;;;13.75;13.75;;;;;20.25;66.97;100995.84;5010303;28;8831;-66
2022/09/13 00:35:02;;;;;;;;;14.00;14.00;;;;;20.24;67.17;100996.91;5010309;28;8842;-67
2022/09/13 00:37:29;;;;;;;;;13.50;13.00;;;;;20.25;67.13;100984.91;5009672;28;8843;-67
2022/09/13 00:39:55;;;;;;;;;12.00;11.00;;;;;20.24;67.27;100983.22;5010029;28;8835;-67
2022/09/13 00:42:26;;;;;;;;;15.00;15.00;;;;;20.24;67.26;100977.78;5010203;28;8917;-67
2022/09/13 00:44:56;;;;;;;;;16.75;15.75;;;;;20.23;67.41;100972.56;5010039;28;8839;-67
2022/09/13 00:47:44;;;;;;;;;16.50;13.75;;;;;20.23;67.41;100973.38;5009450;28;8828;-66
2022/09/13 00:50:17;;;;;;;;;11.00;10.50;;;;;20.24;67.72;100976.94;5010207;28;8843;-65
2022/09/13 00:52:51;;;;;;;;;14.50;13.50;;;;;20.25;67.77;100979.44;5010109;28;8819;-65
2022/09/13 00:55:33;;;;;;;;;9.75;6.75;;;;;20.27;67.76;100973.72;5007336;28;8827;-66
2022/09/13 00:58:07;;;;;;;;;12.25;11.75;;;;;20.28;67.92;100975.34;5009829;28;8835;-67
2022/09/13 01:00:34;;;;;;;;;15.75;14.50;;;;;20.28;68.10;100980.00;5009950;28;8827;-66
2022/09/13 01:03:05;;;;;;;;;9.75;9.75;;;;;20.28;68.13;100978.09;5011228;28;8823;-67
2022/09/13 01:05:50;;;;;;;;;14.00;12.75;;;;;20.29;67.99;100981.63;4994176;28;8834;-66
2022/09/13 01:08:21;;;;;;;;;14.25;10.50;;;;;20.28;68.32;100972.63;5009606;28;8862;-66
2022/09/13 01:10:52;;;;;;;;;13.75;13.00;;;;;20.27;68.34;100976.44;5020790;28;8845;-66
2022/09/13 01:13:27;;;;;;;;;11.75;11.75;;;;;20.27;68.30;100975.63;5017946;28;8827;-67
2022/09/13 01:15:54;;;;;;;;;13.75;13.00;;;;;20.24;68.48;100980.50;5017997;28;8832;-67
2022/09/13 01:18:20;;;;;;;;;13.75;13.25;;;;;20.23;68.63;100967.91;5027119;28;8847;-66
2022/09/13 01:21:11;;;;;;;;;12.00;11.00;;;;;20.22;68.79;100971.75;5029602;28;9577;-67
2022/09/13 01:24:05;;;;;;;;;14.25;11.50;;;;;20.20;68.80;100973.06;5029618;28;8829;-66
2022/09/13 01:26:51;;;;;;;;;12.75;12.75;;;;;20.16;68.84;100972.75;5029295;28;8854;-67
2022/09/13 01:29:46;;;;;;;;;13.25;12.25;;;;;20.15;69.04;100975.75;5028551;28;8832;-66
2022/09/13 01:32:43;;;;;;;;;9.75;9.75;;;;;20.13;69.05;100959.59;5013196;28;8854;-67
2022/09/13 01:35:40;;;;;;;;;11.50;11.50;;;;;20.11;68.98;100967.22;5013256;28;8827;-67
2022/09/13 01:38:32;;;;;;;;;13.50;13.50;;;;;20.10;69.19;100962.84;5012734;28;8987;-67
2022/09/13 01:41:04;;;;;;;;;13.50;12.25;;;;;20.09;69.33;100958.44;5011807;28;8861;-67
2022/09/13 01:44:08;;;;;;;;;14.25;12.75;;;;;20.08;69.16;100962.25;5019500;28;8955;-67
2022/09/13 01:47:01;;;;;;;;;12.75;12.75;;;;;20.08;69.35;100961.44;4993298;28;8834;-67
2022/09/13 01:49:40;;;;;;;;;12.50;12.50;;;;;20.07;69.35;100957.88;4993438;28;8848;-66
2022/09/13 01:52:15;;;;;;;;;11.00;10.75;;;;;20.06;69.43;100960.88;4992160;28;8909;-67
2022/09/13 01:55:12;;;;;;;;;11.50;10.25;;;;;20.06;69.61;100948.03;5006815;28;8827;-67
2022/09/13 01:57:52;;;;;;;;;12.50;11.75;;;;;20.05;69.60;100956.47;5010577;28;8858;-68
2022/09/13 02:00:19;;;;;;;;;15.50;14.50;;;;;20.04;69.37;100961.13;5028423;28;8855;-67
2022/09/13 02:02:52;;;;;;;;;11.00;11.00;;;;;20.01;69.69;100953.44;5027024;28;8961;-67
2022/09/13 02:05:36;;;;;;;;;12.50;12.50;;;;;20.00;69.85;100949.03;5012547;28;8827;-67
2022/09/13 02:08:08;;;;;;;;;12.50;11.50;;;;;19.98;69.95;100951.22;5012059;28;9013;-67
2022/09/13 02:10:40;;;;;;;;;17.50;13.50;;;;;19.96;69.97;100947.91;5016315;28;8848;-67
2022/09/13 02:13:13;;;;;;;;;12.75;12.75;;;;;19.95;70.07;100951.72;5012451;28;8890;-67
2022/09/13 02:15:45;;;;;;;;;10.50;10.25;;;;;19.93;70.26;100943.78;5012594;28;8823;-67
2022/09/13 02:18:24;;;;;;;;;9.25;9.25;;;;;19.95;70.15;100946.25;5012047;28;8835;-67
2022/09/13 02:20:53;;;;;;;;;13.00;12.75;;;;;19.94;70.31;100947.34;5021205;28;8824;-66
2022/09/13 02:23:29;;;;;;;;;12.00;11.50;;;;;19.96;70.18;100947.91;5032061;28;8847;-66
2022/09/13 02:25:56;;;;;;;;;10.00;10.00;;;;;19.96;70.32;100943.25;5032040;28;8844;-67
2022/09/13 02:28:30;;;;;;;;;12.75;12.75;;;;;19.95;70.13;100943.53;5031810;28;8812;-67
2022/09/13 02:30:58;;;;;;;;;10.25;10.25;;;;;19.95;70.44;100940.78;5014515;28;8845;-67
2022/09/13 02:33:32;;;;;;;;;9.50;9.50;;;;;19.94;70.15;100941.88;5011994;28;8865;-66
2022/09/13 02:36:05;;;;;;;;;13.25;12.00;;;;;19.94;70.10;100952.81;5012388;28;9564;-67
2022/09/13 02:38:38;;;;;;;;;16.25;14.75;;;;;19.93;70.06;100949.25;5021521;28;8844;-66
2022/09/13 02:41:16;;;;;;;;;11.25;11.25;;;;;19.92;70.27;100947.59;5025274;28;8851;-67
2022/09/13 02:43:49;;;;;;;;;13.00;13.00;;;;;19.92;70.14;100957.69;5031947;28;9561;-66
2022/09/13 02:46:28;;;;;;;;;14.25;13.75;;;;;19.89;70.15;100950.00;5031526;28;8850;-67
2022/09/13 02:48:58;;;;;;;;;12.25;11.50;;;;;19.87;70.24;100949.44;5012942;28;8851;-67
2022/09/13 02:51:52;;;;;;;;;15.00;15.00;;;;;19.84;70.34;100944.47;5026230;28;8955;-67
2022/09/13 02:54:38;;;;;;;;;15.00;14.75;;;;;19.84;70.32;100952.66;5027275;28;8838;-66
2022/09/13 02:57:21;;;;;;;;;11.50;9.00;;;;;19.83;70.52;100953.75;5011203;28;8857;-67
2022/09/13 02:59:48;;;;;;;;;14.00;13.00;;;;;19.81;70.59;100951.28;5018338;28;8859;-67
2022/09/13 03:02:18;;;;;;;;;11.50;11.50;;;;;19.81;70.57;100945.81;5031097;28;8820;-67
2022/09/13 03:04:44;;;;;;;;;15.00;13.50;;;;;19.80;70.67;100949.59;5014616;28;8834;-68
2022/09/13 03:07:13;;;;;;;;;16.00;14.25;;;;;19.79;70.54;100947.13;5011042;28;8815;-67
2022/09/13 03:09:46;;;;;;;;;12.25;12.25;;;;;19.78;70.64;100950.97;5016964;28;8847;-67
2022/09/13 03:12:38;;;;;;;;;16.75;16.25;;;;;19.76;70.69;100954.75;5030666;28;8866;-67
2022/09/13 03:15:13;;;;;;;;;10.00;9.75;;;;;19.75;70.84;100955.84;5011782;28;8854;-67
2022/09/13 03:17:47;;;;;;;;;16.25;14.25;;;;;19.74;70.84;100953.38;5011315;28;8855;-67
2022/09/13 03:20:29;;;;;;;;;15.75;15.75;;;;;19.74;70.88;100954.19;5017598;28;9583;-67
2022/09/13 03:23:20;;;;;;;;;16.25;15.00;;;;;19.74;70.86;100951.47;5031338;28;8870;-66
2022/09/13 03:26:06;;;;;;;;;12.00;9.75;;;;;19.75;70.75;100952.28;5031102;28;8840;-66
2022/09/13 03:28:48;;;;;;;;;13.00;12.50;;;;;19.75;70.94;100944.91;5030063;28;8938;-66
2022/09/13 03:31:21;;;;;;;;;17.50;15.00;;;;;19.74;70.97;100951.47;5011085;28;8849;-67
2022/09/13 03:33:58;;;;;;;;;11.25;11.25;;;;;19.71;71.05;100943.75;5011210;28;8880;-67
2022/09/13 03:36:54;;;;;;;;;14.00;14.00;;;;;19.70;70.95;100944.84;5011366;28;8858;-66
2022/09/13 03:39:38;;;;;;;;;13.25;12.50;;;;;19.67;71.05;100945.34;5011086;28;8933;-66
2022/09/13 03:42:34;;;;;;;;;14.00;13.50;;;;;19.64;70.96;100945.84;5012890;28;8961;-67
2022/09/13 03:45:02;;;;;;;;;14.75;13.25;;;;;19.61;71.09;100946.38;5010014;28;8865;-66
2022/09/13 03:47:32;;;;;;;;;14.25;14.25;;;;;19.59;71.22;100944.91;5010532;28;8823;-66
2022/09/13 03:50:00;;;;;;;;;19.00;17.25;;;;;19.52;71.44;100945.91;5023149;28;8813;-67
2022/09/13 03:52:27;;;;;;;;;17.00;16.00;;;;;19.51;71.46;100943.44;5008993;28;9568;-67
2022/09/13 03:54:53;;;;;;;;;18.25;16.75;;;;;19.50;71.38;100944.53;5010873;28;8815;-67
2022/09/13 03:57:21;;;;;;;;;17.25;15.75;;;;;19.48;71.42;100938.47;5010283;28;8885;-66
2022/09/13 03:59:54;;;;;;;;;17.75;17.00;;;;;19.46;71.57;100938.75;5009418;28;9548;-67
2022/09/13 04:02:23;;;;;;;;;16.50;16.00;;;;;19.45;71.56;100947.19;5010534;28;9548;-67
2022/09/13 04:04:49;;;;;;;;;13.75;13.75;;;;;19.43;71.53;100952.88;5010680;28;8921;-66
2022/09/13 04:07:19;;;;;;;;;17.50;15.50;;;;;19.43;71.34;100952.06;5010537;28;8874;-67
2022/09/13 04:09:46;;;;;;;;;16.25;13.25;;;;;19.42;71.63;100950.41;5016771;28;8831;-67
2022/09/13 04:12:14;;;;;;;;;19.25;17.50;;;;;19.38;71.24;100947.34;5010175;28;8865;-68
2022/09/13 04:14:42;;;;;;;;;18.25;16.75;;;;;19.35;71.61;100950.56;5010147;28;9540;-67
2022/09/13 04:17:09;;;;;;;;;14.50;14.50;;;;;19.35;71.48;100957.94;5009912;28;8827;-67
2022/09/13 04:19:36;;;;;;;;;17.00;17.00;;;;;19.33;71.59;100963.66;5021506;28;9518;-66
2022/09/13 04:22:03;;;;;;;;;23.25;18.75;;;;;19.33;72.02;100960.13;5026952;28;8863;-67
2022/09/13 04:24:30;;;;;;;;;20.75;17.75;;;;;19.32;71.61;100959.25;5010241;28;8847;-66
2022/09/13 04:26:57;;;;;;;;;19.00;18.25;;;;;19.32;71.79;100956.53;5009865;28;8842;-67
2022/09/13 04:29:25;;;;;;;;;21.25;19.00;;;;;19.31;71.77;100956.78;5016657;28;8863;-66
2022/09/13 04:31:53;;;;;;;;;25.75;21.00;;;;;19.31;71.84;100954.88;5023953;28;8844;-65
2022/09/13 04:34:21;;;;;;;;;24.00;22.00;;;;;19.29;72.01;100954.31;5030163;28;8836;-65
2022/09/13 04:36:49;;;;;;;;;18.00;18.00;;;;;19.28;72.03;100960.84;5029876;28;8928;-65
2022/09/13 04:39:16;;;;;;;;;14.00;13.00;;;;;19.29;72.09;100964.41;5030062;28;8836;-66
2022/09/13 04:41:47;;;;;;;;;16.25;16.25;;;;;19.30;71.96;100953.25;5023909;28;9547;-66
2022/09/13 04:44:15;;;;;;;;;17.67;17.67;;;;;19.32;71.96;100963.91;5029161;28;8833;-67
2022/09/13 04:46:45;;;;;;;;;16.75;16.75;;;;;19.33;71.95;100968.31;5013154;28;8924;-67
2022/09/13 04:49:12;;;;;;;;;19.00;16.00;;;;;19.33;72.17;100965.56;5013618;28;8835;-67
2022/09/13 04:51:39;;;;;;;;;19.33;18.67;;;;;19.33;72.03;100968.31;5009743;28;8955;-66
2022/09/13 04:54:05;;;;;;;;;15.67;15.00;;;;;19.32;72.23;100967.44;5023494;28;9086;-66
2022/09/13 04:56:31;;;;;;;;;20.00;18.00;;;;;19.34;72.29;100969.94;5029210;28;8951;-67
2022/09/13 04:58:58;;;;;;;;;18.33;17.33;;;;;19.35;72.23;100972.41;5029581;28;8918;-67
2022/09/13 05:01:24;;;;;;;;;15.50;15.50;;;;;19.37;72.31;100967.56;5029751;28;8901;-67
2022/09/13 05:03:54;;;;;;;;;19.00;18.00;;;;;19.39;72.28;100970.03;5028117;28;9580;-65
2022/09/13 05:06:21;;;;;;;;;14.75;14.00;;;;;19.39;72.25;100968.13;5031523;28;8928;-68
2022/09/13 05:08:54;;;;;;;;;15.75;13.50;;;;;19.40;72.28;100968.94;5025367;28;9570;-66
2022/09/13 05:11:22;;;;;;;;;12.25;11.50;;;;;19.42;72.33;100977.72;5013741;28;9578;-65
2022/09/13 05:13:51;;;;;;;;;18.75;15.00;;;;;19.44;72.42;100976.38;5024655;28;8871;-66
2022/09/13 05:16:18;;;;;;;;;13.00;12.25;;;;;19.45;72.38;100985.41;5033077;28;8841;-67
2022/09/13 05:18:44;;;;;;;;;14.75;13.25;;;;;19.46;72.32;100990.63;5032984;28;8850;-65
2022/09/13 05:21:11;;;;;;;;;13.25;13.25;;;;;19.46;72.46;100990.63;5033171;28;8934;-67
2022/09/13 05:23:38;;;;;;;;;14.75;13.00;;;;;19.48;72.44;100993.09;5028031;28;8847;-66
2022/09/13 05:26:05;;;;;;;;;13.50;12.25;;;;;19.49;72.50;100997.50;5014546;28;8853;-67
2022/09/13 05:28:34;;;;;;;;;14.25;13.75;;;;;19.49;72.39;100995.59;5012895;28;8839;-67
2022/09/13 05:31:03;;;;;;;;;12.00;10.25;;;;;19.50;72.42;100994.50;5013152;28;8854;-67
2022/09/13 05:33:32;;;;;;;;;13.00;11.25;;;;;19.52;72.54;100992.34;5013063;28;9008;-66
2022/09/13 05:35:59;;;;;;;;;5.00;5.00;;;;;19.53;72.51;100995.91;5015823;28;8835;-67
2022/09/13 05:38:26;;;;;;;;;9.00;9.00;;;;;19.55;72.40;101009.31;5006450;28;8839;-66
2022/09/13 05:40:56;;;;;;;;;13.75;12.75;;;;;19.55;72.44;101006.56;5012926;28;9530;-66
2022/09/13 05:43:24;;;;;;;;;15.00;13.50;;;;;19.54;72.50;101015.84;5012704;28;8929;-68
2022/09/13 05:46:00;;;;;;;;;13.00;12.50;;;;;19.54;72.60;101019.41;5012762;28;8897;-66
2022/09/13 05:48:27;;;;;;;;;7.50;7.50;;;;;19.51;73.31;101022.63;5012380;28;8877;-65
2022/09/13 05:50:53;;;;;;;;;5.50;4.75;;;;;19.52;73.46;101033.28;5014038;28;9580;-66
2022/09/13 05:53:24;;;;;;;;;3.50;3.50;;;;;19.54;73.55;101035.78;5018194;28;8844;-66
2022/09/13 05:55:50;;;;;;;;;5.75;5.00;;;;;19.57;73.70;101032.56;5015624;28;8864;-65
2022/09/13 05:58:16;;;;;;;;;5.00;4.25;;;;;19.59;73.61;101029.56;5031919;28;8867;-66
2022/09/13 06:00:43;;;;;;;;;4.25;4.25;;;;;19.61;73.53;101032.91;5020699;28;8809;-66
2022/09/13 06:03:09;;;;;;;;;4.50;4.00;;;;;19.59;73.54;101035.88;5012406;28;8841;-68
2022/09/13 06:05:35;;;;;;;;;6.00;5.00;;;;;19.60;73.71;101042.97;5012256;28;8843;-66
2022/09/13 06:08:02;;;;;;;;;3.00;3.00;;;;;19.59;73.65;101033.13;5018101;22;1026927;-65
2022/09/13 06:10:29;;;;;;;;;3.00;3.00;;;;;19.58;73.45;101039.69;5052162;28;8818;-64
2022/09/13 06:12:55;;;;;;;;;3.00;3.00;;;;;19.56;73.33;101035.53;5049974;28;8842;-66
2022/09/13 06:15:21;;;;;;;;;4.00;4.00;;;;;19.55;73.27;101039.34;5050737;28;8840;-65
2022/09/13 06:17:48;;;;;;;;;2.00;2.00;;;;;19.54;73.13;101045.88;5041557;28;8826;-65
2022/09/13 06:20:14;;;;;;;;;2.75;1.50;;;;;19.54;73.14;101034.97;5027225;28;8848;-66
2022/09/13 06:22:41;;;;;;;;;2.25;1.25;;;;;19.56;73.04;101030.06;5032103;28;8974;-65
2022/09/13 06:25:08;;;;;;;;;1.50;1.50;;;;;19.58;72.90;101036.13;5031007;28;8938;-65
2022/09/13 06:27:34;;;;;;;;;1.00;1.00;;;;;19.59;72.66;101052.25;5031821;28;8949;-65
2022/09/13 06:30:01;;;;;;;;;1.75;1.75;;;;;19.60;72.74;101048.44;5032563;28;8836;-65
2022/09/13 06:32:27;;;;;;;;;3.00;3.00;;;;;19.60;72.64;101048.44;5045205;28;8966;-65
2022/09/13 06:34:53;;;;;;;;;2.00;2.00;;;;;19.61;72.70;101049.28;5032361;28;8844;-65
2022/09/13 06:37:20;;;;;;;;;1.00;1.00;;;;;19.61;72.75;101046.56;5031517;28;8832;-65
2022/09/13 06:39:47;;;;;;;;;2.25;1.00;;;;;19.60;72.87;101033.94;5029723;28;8861;-66
2022/09/13 06:42:13;;;;;;;;;2.50;2.50;;;;;19.59;72.72;101038.59;5022668;28;9578;-65
2022/09/13 06:44:40;;;;;;;;;3.00;1.75;;;;;19.60;72.60;101039.41;5050591;28;8850;-66
2022/09/13 06:47:06;;;;;;;;;1.00;1.00;;;;;19.59;72.60;101035.03;5045447;28;8856;-66
2022/09/13 06:49:33;;;;;;;;;2.25;2.00;;;;;19.60;72.19;101042.97;5036318;28;8828;-66
2022/09/13 06:51:59;;;;;;;;;1.00;1.00;;;;;19.56;71.75;101033.63;5045750;28;8838;-66
2022/09/13 06:54:25;;;;;;;;;0.25;0.25;;;;;19.54;71.67;101040.44;5046926;28;8853;-66
2022/09/13 06:56:52;;;;;;;;;0.00;0.00;;;;;19.55;71.43;101031.16;5027197;28;8864;-67
2022/09/13 06:59:18;;;;;;;;;1.00;1.00;;;;;19.54;71.02;101033.06;5027344;28;9549;-66
2022/09/13 07:01:45;;;;;;;;;0.00;0.00;;;;;19.55;71.27;101031.16;5026441;28;8899;-66
2022/09/13 07:04:18;;;;;;;;;1.00;1.00;;;;;19.58;71.06;101031.47;5026047;28;8828;-67
2022/09/13 07:06:47;;;;;;;;;0.75;0.75;;;;;19.56;70.79;101036.34;5029968;28;8812;-65
2022/09/13 07:09:20;;;;;;;;;1.50;1.00;;;;;19.58;70.62;101036.94;5010601;28;8847;-66
2022/09/13 07:11:48;;;;;;;;;1.00;1.00;;;;;19.58;70.55;101041.59;5011009;28;8835;-65
2022/09/13 07:14:21;;;;;;;;;2.00;2.00;;;;;19.56;70.27;101035.53;5026033;28;8887;-65
2022/09/13 07:16:50;;;;;;;;;0.00;0.00;;;;;19.57;70.51;101038.03;5027150;28;9557;-66
2022/09/13 07:19:27;;;;;;;;;0.75;0.75;;;;;19.57;70.31;101035.28;5026268;28;8845;-66
2022/09/13 07:21:55;;;;;;;;;0.00;0.00;;;;;19.56;70.29;101044.53;5011019;28;8961;-66
2022/09/13 07:24:22;;;;;;;;;0.75;0.75;;;;;19.58;70.07;101036.94;5011341;28;8855;-66
2022/09/13 07:26:49;;;;;;;;;0.75;0.75;;;;;19.59;70.13;101038.59;5024598;28;9508;-66
2022/09/13 07:29:18;;;;;;;;;0.00;0.00;;;;;19.62;70.12;101031.84;5037169;28;9560;-65
2022/09/13 07:31:47;;;;;;;;;0.25;0.25;;;;;19.66;69.96;101033.00;5024892;28;8840;-65
2022/09/13 07:34:19;;;;;;;;;0.25;0.25;;;;;19.69;69.98;101040.69;5035953;28;8865;-64
2022/09/13 07:36:46;;;;;;;;;0.00;0.00;;;;;19.74;69.90;101035.31;5028302;28;8809;-65
2022/09/13 07:39:14;;;;;;;;;0.50;0.50;;;;;19.76;69.72;101041.34;5014859;28;8835;-65
2022/09/13 07:41:45;;;;;;;;;1.50;1.50;;;;;19.79;69.52;101037.28;5014282;28;8841;-65
2022/09/13 07:44:12;;;;;;;;;1.00;1.00;;;;;19.80;69.65;101045.22;5030195;28;8848;-65
2022/09/13 07:46:40;;;;;;;;;1.00;1.00;;;;;19.85;69.38;101047.19;5029618;28;8825;-64
2022/09/13 07:49:07;;;;;;;;;1.75;1.75;;;;;19.86;69.37;101051.59;5028292;28;8843;-65
2022/09/13 07:51:38;;;;;;;;;1.25;1.25;;;;;19.92;69.33;101053.31;5024950;28;8836;-65
2022/09/13 07:54:11;;;;;;;;;0.50;0.00;;;;;19.93;69.08;101053.09;5049368;28;8837;-65
2022/09/13 07:56:40;;;;;;;;;1.25;1.00;;;;;19.94;69.21;101057.47;5041233;28;8846;-65
2022/09/13 07:59:11;;;;;;;;;1.75;1.00;;;;;19.97;69.30;101058.84;5035551;28;8846;-66
2022/09/13 08:01:40;;;;;;;;;0.25;0.25;;;;;20.01;68.97;101060.00;5023993;28;8862;-65
2022/09/13 08:04:09;;;;;;;;;0.00;0.00;;;;;19.99;69.00;101059.44;5010227;28;8827;-67
2022/09/13 08:06:38;;;;;;;;;1.00;1.00;;;;;20.00;68.96;101063.81;5026570;28;8828;-66
2022/09/13 08:09:06;;;;;;;;;0.75;0.75;;;;;20.00;68.92;101063.81;5021918;28;8841;-66
2022/09/13 08:11:36;;;;;;;;;1.00;1.00;;;;;20.04;68.81;101062.22;5029599;28;8871;-65
2022/09/13 08:14:05;;;;;;;;;2.25;1.00;;;;;20.05;68.67;101069.34;5029647;28;8832;-65
2022/09/13 08:16:31;;;;;;;;;1.25;1.25;;;;;20.10;68.21;101057.69;5029420;28;9577;-65
2022/09/13 08:19:01;;;;;;;;;0.00;0.00;;;;;20.07;68.50;101069.94;5028872;28;8899;-66
2022/09/13 08:21:35;;;;;;;;;0.50;0.50;;;;;20.06;68.23;101071.03;5029132;28;8852;-67
2022/09/13 08:24:03;;;;;;;;;1.00;0.25;;;;;20.04;68.38;101070.44;5030053;28;8832;-66
2022/09/13 08:26:31;;;;;;;;;1.50;1.00;;;;;20.06;68.59;101070.19;5020568;28;8834;-65
2022/09/13 08:29:00;;;;;;;;;1.00;1.00;;;;;20.06;68.30;101070.19;5010190;28;8847;-65
2022/09/13 08:31:27;;;;;;;;;1.00;1.00;;;;;20.04;68.31;101077.81;5011106;28;8843;-65
2022/09/13 08:33:55;;;;;;;;;1.00;1.00;;;;;20.04;68.63;101075.91;5024544;28;8872;-66
2022/09/13 08:36:22;;;;;;;;;1.00;1.00;;;;;20.04;68.37;101081.38;5025550;28;8845;-66
2022/09/13 08:38:53;;;;;;;;;2.00;2.00;;;;;20.08;68.27;101077.03;5031799;28;8923;-66
2022/09/13 08:41:51;;;;;;;;;2.50;2.50;;;;;20.13;68.08;101066.19;5040445;28;8822;-66
2022/09/13 08:44:26;;;;;;;;;1.00;1.00;;;;;20.13;68.05;101079.84;5035532;28;9671;-66
2022/09/13 08:47:01;;;;;;;;;3.00;2.00;;;;;20.12;68.42;101078.19;5049679;28;8814;-66
2022/09/13 08:49:33;;;;;;;;;0.00;0.00;;;;;20.14;68.42;101070.59;5033707;28;8856;-65
2022/09/13 08:52:14;;;;;;;;;2.75;2.75;;;;;20.14;68.28;101076.06;5033463;28;8832;-65
2022/09/13 08:54:42;;;;;;;;;0.00;0.00;;;;;20.13;68.32;101077.09;5028376;28;8852;-65
2022/09/13 08:57:18;;;;;;;;;1.50;1.00;;;;;20.09;68.16;101078.69;5031702;28;8873;-65
2022/09/13 09:00:23;;;;;;;;;2.25;1.00;;;;;20.10;68.38;101077.63;5037719;28;8852;-65
2022/09/13 09:03:08;;;;;;;;;1.25;0.75;;;;;20.11;68.22;101079.28;5033181;28;8848;-65
2022/09/13 09:05:46;;;;;;;;;1.00;1.00;;;;;20.13;67.99;101082.56;5037210;28;8857;-65
2022/09/13 09:08:32;;;;;;;;;1.25;1.25;;;;;20.15;67.67;101077.69;5031436;28;8832;-65
2022/09/13 09:11:06;;;;;;;;;1.00;1.00;;;;;20.20;67.71;101075.03;5032567;28;8834;-66
2022/09/13 09:13:56;;;;;;;;;2.50;2.00;;;;;20.25;67.45;101075.13;5020691;28;8886;-66
2022/09/13 09:16:52;;;;;;;;;1.00;1.00;;;;;20.28;67.37;101081.16;5027472;28;8845;-65
2022/09/13 09:19:23;;;;;;;;;0.00;0.00;;;;;20.28;66.80;101081.16;5018583;28;8830;-65
2022/09/13 09:21:50;;;;;;;;;1.00;1.00;;;;;20.30;66.44;101079.81;5018232;28;9547;-67
2022/09/13 09:24:23;;;;;;;;;1.00;1.00;;;;;20.37;66.20;101074.16;5031113;28;8852;-66
2022/09/13 09:26:52;;;;;;;;;1.00;1.00;;;;;20.37;65.81;101088.66;5020046;28;8851;-66
2022/09/13 09:29:24;;;;;;;;;2.00;2.00;;;;;20.37;65.44;101085.09;5027108;28;8840;-66
2022/09/13 09:31:59;;;;;;;;;1.25;1.00;;;;;20.39;65.19;101086.50;5013121;28;8831;-66
2022/09/13 09:35:03;;;;;;;;;2.25;2.25;;;;;20.46;65.41;101086.31;5023932;28;8851;-66
2022/09/13 09:37:30;;;;;;;;;1.75;1.75;;;;;20.52;64.64;101085.31;5013711;28;8878;-66
2022/09/13 09:40:04;;;;;;;;;1.00;1.00;;;;;20.54;63.90;101085.91;5019360;28;9566;-65
2022/09/13 09:42:44;;;;;;;;;1.50;1.50;;;;;20.54;63.60;101080.44;5012651;28;8819;-66
2022/09/13 09:45:22;;;;;;;;;3.25;2.00;;;;;20.56;63.60;101088.38;5013630;28;8844;-65
2022/09/13 09:47:50;;;;;;;;;1.50;1.50;;;;;20.55;63.25;101086.72;5021528;28;8843;-66
2022/09/13 09:50:25;;;;;;;;;1.75;1.75;;;;;20.54;62.96;101087.78;5023721;28;8907;-66
2022/09/13 09:52:58;;;;;;;;;1.50;1.50;;;;;20.61;62.88;101081.06;5028020;28;8832;-65
2022/09/13 09:55:29;;;;;;;;;1.75;1.75;;;;;20.65;62.87;101082.19;5019223;28;8879;-65
2022/09/13 09:58:03;;;;;;;;;1.75;1.75;;;;;20.72;62.59;101085.56;5027139;28;9689;-65
2022/09/13 10:00:34;;;;;;;;;2.00;1.00;;;;;20.74;61.85;101077.94;5008626;28;9510;-65
2022/09/13 10:03:07;;;;;;;;;2.00;2.00;;;;;20.76;61.80;101074.13;5017126;28;8839;-65
2022/09/13 10:05:34;;;;;;;;;0.25;0.25;;;;;20.76;61.61;101068.66;5020461;28;8833;-65
2022/09/13 10:08:06;;;;;;;;;1.00;1.00;;;;;20.69;61.32;101071.56;5013455;28;8820;-65
2022/09/13 10:10:58;;;;;;;;;1.75;1.75;;;;;20.66;60.86;101074.81;5027366;28;8833;-65
2022/09/13 10:13:26;;;;;;;;;1.50;1.50;;;;;20.64;61.20;101077.81;5012679;28;8908;-66
2022/09/13 10:16:25;;;;;;;;;2.00;2.00;;;;;20.68;61.31;101080.88;5014458;28;9608;-65
2022/09/13 10:18:51;;;;;;;;;1.00;1.00;;;;;20.67;61.27;101071.84;5012932;28;8827;-65
2022/09/13 10:21:18;;;;;;;;;1.00;1.00;;;;;20.67;60.85;101069.09;5019720;28;8834;-65
2022/09/13 10:23:46;;;;;;;;;2.00;2.00;;;;;20.67;60.65;101063.63;5026321;28;8825;-64
2022/09/13 10:26:27;;;;;;;;;3.25;3.25;;;;;20.65;60.69;101071.25;5024635;28;8830;-66
2022/09/13 10:29:00;;;;;;;;;1.25;1.25;;;;;20.63;60.32;101070.69;5023629;28;8839;-66
2022/09/13 10:31:30;;;;;;;;;1.00;1.00;;;;;20.60;60.19;101063.00;5039648;28;8835;-68
2022/09/13 10:34:01;;;;;;;;;0.00;0.00;;;;;20.63;60.35;101072.59;5040022;28;8861;-66
2022/09/13 10:36:34;;;;;;;;;1.00;1.00;;;;;20.67;59.87;101073.75;5020502;28;8857;-64
2022/09/13 10:39:20;;;;;;;;;1.00;1.00;;;;;20.68;59.94;101072.66;5025911;28;8852;-65
2022/09/13 10:41:55;;;;;;;;;1.25;1.00;;;;;20.71;59.92;101059.31;5017960;28;8858;-65
2022/09/13 10:44:33;;;;;;;;;2.00;2.00;;;;;20.73;60.18;101061.78;5026497;28;8851;-66
2022/09/13 10:47:05;;;;;;;;;1.00;1.00;;;;;20.73;59.65;101072.72;5024668;28;8879;-65
2022/09/13 10:49:49;;;;;;;;;1.00;1.00;;;;;20.71;59.43;101075.72;5015502;28;8861;-65
2022/09/13 10:52:42;;;;;;;;;0.00;0.00;;;;;20.72;58.93;101074.63;5017923;28;8831;-64
2022/09/13 10:55:20;;;;;;;;;1.75;1.00;;;;;20.72;58.52;101071.06;5034062;28;8850;-66
2022/09/13 10:58:06;;;;;;;;;1.00;1.00;;;;;20.67;58.84;101079.22;5010112;28;8971;-65
2022/09/13 11:00:41;;;;;;;;;0.75;0.75;;;;;20.69;58.69;101083.34;5006643;28;8866;-65
2022/09/13 11:03:27;;;;;;;;;1.00;1.00;;;;;20.69;58.87;101075.13;5012939;28;8831;-65
2022/09/13 11:06:10;;;;;;;;;0.00;0.00;;;;;20.73;58.92;101068.06;5030241;28;8974;-65
2022/09/13 11:09:00;;;;;;;;;1.75;1.75;;;;;20.81;57.75;101071.44;5045891;28;9608;-65
2022/09/13 11:11:44;;;;;;;;;0.00;0.00;;;;;20.81;57.97;101072.25;5018601;28;8846;-65
2022/09/13 11:14:32;;;;;;;;;0.00;0.00;;;;;20.84;57.65;101073.66;5050563;28;8931;-65
2022/09/13 11:17:18;;;;;;;;;1.25;1.25;;;;;20.85;56.85;101064.34;5050483;28;8879;-65
2022/09/13 11:19:52;;;;;;;;;1.00;1.00;;;;;20.86;56.85;101060.53;5050811;28;8818;-65
2022/09/13 11:22:53;;;;;;;;;1.75;1.75;;;;;20.83;56.75;101058.34;5050544;28;8840;-65
2022/09/13 11:25:38;;;;;;;;;0.00;0.00;;;;;20.83;57.02;101052.88;5012769;28;8839;-65
2022/09/13 11:28:24;;;;;;;;;0.50;0.50;;;;;20.80;56.31;101050.63;5012360;28;8827;-65
2022/09/13 11:31:09;;;;;;;;;0.50;0.50;;;;;20.72;55.08;101050.00;5015884;28;8831;-65
2022/09/13 11:34:23;;;;;;;;;1.00;1.00;;;;;20.78;55.31;101058.25;5010647;28;9542;-65
2022/09/13 11:37:11;;;;;;;;;0.00;0.00;;;;;20.83;55.79;101056.41;4998331;28;8841;-65
2022/09/13 11:39:56;;;;;;;;;1.00;0.50;;;;;20.87;56.01;101054.81;4976902;28;8846;-65
2022/09/13 11:42:45;;;;;;;;;0.00;0.00;;;;;20.91;55.18;101052.41;5006732;28;8847;-66
2022/09/13 11:45:22;;;;;;;;;0.50;0.00;;;;;20.90;53.82;101043.38;5020427;28;8836;-66
2022/09/13 11:48:24;;;;;;;;;0.00;0.00;;;;;21.01;53.75;101044.28;5028675;28;8829;-66
2022/09/13 11:51:14;;;;;;;;;0.00;0.00;;;;;21.05;53.41;101041.84;5031650;28;8825;-66
2022/09/13 11:54:08;;;;;;;;;0.25;0.00;;;;;21.05;53.43;101044.59;5010080;28;8851;-65
2022/09/13 11:56:41;;;;;;;;;0.50;0.50;;;;;21.06;54.04;101049.78;5041629;28;8836;-66